sensor_id;sensor_type;location;lat;lon;timestamp;pressure;altitude;pressure_sealevel;temperature;humidity
40245;BME280;25963;42.694;23.600;2023-05-23T00:06:50;95024.66;;;10.11;100.00
40245;BME280;25963;42.694;23.600;2023-05-23T00:09:36;95033.16;;;10.13;100.00
40245;BME280;25963;42.694;23.600;2023-05-23T00:12:01;95019.03;;;10.07;100.00
40245;BME280;25963;42.694;23.600;2023-05-23T00:15:11;95050.91;;;10.24;100.00
40245;BME280;25963;42.694;23.600;2023-05-23T00:25:28;95016.19;;;9.83;100.00
40245;BME280;25963;42.694;23.600;2023-05-23T00:31:46;95088.84;;;9.98;100.00
40245;BME280;25963;42.694;23.600;2023-05-23T00:37:41;95024.72;;;9.54;100.00
40245;BME280;25963;42.694;23.600;2023-05-23T00:40:14;95030.66;;;9.74;100.00
40245;BME280;25963;42.694;23.600;2023-05-23T00:42:39;95007.63;;;9.63;100.00
40245;BME280;25963;42.694;23.600;2023-05-23T00:45:05;95069.75;;;10.02;100.00
40245;BME280;25963;42.694;23.600;2023-05-23T00:47:31;95026.63;;;9.72;100.00
40245;BME280;25963;42.694;23.600;2023-05-23T00:50:06;95018.59;;;9.60;100.00
40245;BME280;25963;42.694;23.600;2023-05-23T00:52:37;95057.72;;;9.88;100.00
40245;BME280;25963;42.694;23.600;2023-05-23T00:55:06;95026.59;;;9.78;100.00
40245;BME280;25963;42.694;23.600;2023-05-23T00:57:38;95028.94;;;9.87;100.00
40245;BME280;25963;42.694;23.600;2023-05-23T01:00:07;95024.59;;;9.74;100.00
40245;BME280;25963;42.694;23.600;2023-05-23T01:08:36;95018.16;;;9.63;100.00
40245;BME280;25963;42.694;23.600;2023-05-23T01:28:07;95022.25;;;9.59;100.00
40245;BME280;25963;42.694;23.600;2023-05-23T01:31:11;95025.19;;;9.76;100.00
40245;BME280;25963;42.694;23.600;2023-05-23T01:33:45;95041.78;;;10.01;100.00
40245;BME280;25963;42.694;23.600;2023-05-23T01:39:39;95012.66;;;9.96;100.00
40245;BME280;25963;42.694;23.600;2023-05-23T01:42:05;95008.97;;;9.97;100.00
40245;BME280;25963;42.694;23.600;2023-05-23T01:44:37;95019.47;;;10.04;100.00
40245;BME280;25963;42.694;23.600;2023-05-23T01:47:05;95015.78;;;10.05;100.00
40245;BME280;25963;42.694;23.600;2023-05-23T01:49:35;95079.97;;;10.42;100.00
40245;BME280;25963;42.694;23.600;2023-05-23T01:52:12;95036.84;;;10.12;100.00
40245;BME280;25963;42.694;23.600;2023-05-23T01:55:24;95025.94;;;10.08;100.00
40245;BME280;25963;42.694;23.600;2023-05-23T01:57:45;95017.50;;;10.18;100.00
40245;BME280;25963;42.694;23.600;2023-05-23T02:00:27;95053.16;;;10.45;100.00
40245;BME280;25963;42.694;23.600;2023-05-23T02:03:14;95070.19;;;10.68;100.00
40245;BME280;25963;42.694;23.600;2023-05-23T02:09:02;95009.44;;;10.13;100.00
40245;BME280;25963;42.694;23.600;2023-05-23T02:14:56;95042.75;;;10.32;100.00
40245;BME280;25963;42.694;23.600;2023-05-23T02:31:44;95019.28;;;10.24;100.00
40245;BME280;25963;42.694;23.600;2023-05-23T02:34:10;95010.16;;;10.26;100.00
40245;BME280;25963;42.694;23.600;2023-05-23T02:36:36;95046.72;;;10.41;100.00
40245;BME280;25963;42.694;23.600;2023-05-23T02:39:04;95015.34;;;10.33;100.00
40245;BME280;25963;42.694;23.600;2023-05-23T02:41:42;95033.66;;;10.46;100.00
40245;BME280;25963;42.694;23.600;2023-05-23T02:44:10;95005.25;;;10.30;100.00
40245;BME280;25963;42.694;23.600;2023-05-23T02:46:39;95009.28;;;10.26;100.00
40245;BME280;25963;42.694;23.600;2023-05-23T02:49:12;95006.66;;;10.33;100.00
40245;BME280;25963;42.694;23.600;2023-05-23T02:51:37;95032.50;;;10.61;100.00
40245;BME280;25963;42.694;23.600;2023-05-23T02:54:18;94999.78;;;10.25;100.00
40245;BME280;25963;42.694;23.600;2023-05-23T02:57:13;95063.63;;;10.52;100.00
40245;BME280;25963;42.694;23.600;2023-05-23T02:59:39;95047.72;;;10.59;100.00
40245;BME280;25963;42.694;23.600;2023-05-23T03:02:07;94997.34;;;10.05;100.00
40245;BME280;25963;42.694;23.600;2023-05-23T03:04:48;94993.47;;;10.07;100.00
40245;BME280;25963;42.694;23.600;2023-05-23T03:07:15;94996.25;;;10.13;100.00
40245;BME280;25963;42.694;23.600;2023-05-23T03:09:59;95039.38;;;10.43;100.00
40245;BME280;25963;42.694;23.600;2023-05-23T03:15:52;95018.50;;;10.17;100.00
40245;BME280;25963;42.694;23.600;2023-05-23T03:28:56;95004.38;;;10.36;100.00
40245;BME280;25963;42.694;23.600;2023-05-23T03:31:38;95000.34;;;10.34;100.00
40245;BME280;25963;42.694;23.600;2023-05-23T03:34:23;94993.72;;;10.24;100.00
40245;BME280;25963;42.694;23.600;2023-05-23T03:40:13;95002.06;;;10.21;100.00
40245;BME280;25963;42.694;23.600;2023-05-23T03:42:39;95019.75;;;10.39;100.00
40245;BME280;25963;42.694;23.600;2023-05-23T03:48:36;95053.84;;;10.59;100.00
40245;BME280;25963;42.694;23.600;2023-05-23T03:51:21;95023.03;;;10.35;100.00
40245;BME280;25963;42.694;23.600;2023-05-23T03:56:29;95072.19;;;11.03;100.00
40245;BME280;25963;42.694;23.600;2023-05-23T03:59:10;95032.34;;;10.37;100.00
40245;BME280;25963;42.694;23.600;2023-05-23T04:01:54;95093.47;;;10.71;100.00
40245;BME280;25963;42.694;23.600;2023-05-23T04:13:15;95022.72;;;10.98;100.00
40245;BME280;25963;42.694;23.600;2023-05-23T04:18:57;95026.09;;;10.87;100.00
40245;BME280;25963;42.694;23.600;2023-05-23T04:21:25;95077.38;;;11.28;100.00
40245;BME280;25963;42.694;23.600;2023-05-23T04:30:41;95092.84;;;11.54;100.00
40245;BME280;25963;42.694;23.600;2023-05-23T04:42:18;95042.25;;;11.39;100.00
40245;BME280;25963;42.694;23.600;2023-05-23T04:44:49;95059.94;;;11.38;100.00
40245;BME280;25963;42.694;23.600;2023-05-23T04:47:21;95030.00;;;11.45;100.00
40245;BME280;25963;42.694;23.600;2023-05-23T04:49:55;95079.22;;;11.69;100.00
40245;BME280;25963;42.694;23.600;2023-05-23T04:52:35;95090.69;;;11.63;100.00
40245;BME280;25963;42.694;23.600;2023-05-23T04:55:04;95053.75;;;11.45;100.00
40245;BME280;25963;42.694;23.600;2023-05-23T04:57:35;95076.38;;;11.71;100.00
40245;BME280;25963;42.694;23.600;2023-05-23T05:00:02;95092.81;;;11.84;100.00
40245;BME280;25963;42.694;23.600;2023-05-23T05:02:31;95090.78;;;11.86;100.00
40245;BME280;25963;42.694;23.600;2023-05-23T05:04:59;95091.41;;;12.00;100.00
40245;BME280;25963;42.694;23.600;2023-05-23T05:07:25;95072.56;;;11.78;100.00
40245;BME280;25963;42.694;23.600;2023-05-23T05:09:50;95104.59;;;11.88;100.00
40245;BME280;25963;42.694;23.600;2023-05-23T05:12:16;95111.53;;;12.25;100.00
40245;BME280;25963;42.694;23.600;2023-05-23T05:14:41;95106.03;;;12.38;100.00
40245;BME280;25963;42.694;23.600;2023-05-23T05:17:06;95093.97;;;12.42;100.00
40245;BME280;25963;42.694;23.600;2023-05-23T05:19:32;95104.31;;;12.55;100.00
40245;BME280;25963;42.694;23.600;2023-05-23T05:21:58;95094.28;;;12.69;100.00
40245;BME280;25963;42.694;23.600;2023-05-23T05:24:24;95106.13;;;12.90;100.00
40245;BME280;25963;42.694;23.600;2023-05-23T05:26:52;95087.94;;;12.82;100.00
40245;BME280;25963;42.694;23.600;2023-05-23T05:29:18;95079.53;;;12.85;100.00
40245;BME280;25963;42.694;23.600;2023-05-23T05:31:43;95101.16;;;12.94;100.00
40245;BME280;25963;42.694;23.600;2023-05-23T05:34:10;95099.75;;;13.03;100.00
40245;BME280;25963;42.694;23.600;2023-05-23T05:36:35;95089.16;;;13.03;100.00
40245;BME280;25963;42.694;23.600;2023-05-23T05:39:01;95089.94;;;13.15;100.00
40245;BME280;25963;42.694;23.600;2023-05-23T05:41:28;95108.34;;;13.22;100.00
40245;BME280;25963;42.694;23.600;2023-05-23T05:43:53;95083.53;;;12.99;100.00
40245;BME280;25963;42.694;23.600;2023-05-23T05:46:19;95078.47;;;12.86;100.00
40245;BME280;25963;42.694;23.600;2023-05-23T05:48:45;95084.13;;;12.90;100.00
40245;BME280;25963;42.694;23.600;2023-05-23T05:51:11;95058.19;;;12.63;100.00
40245;BME280;25963;42.694;23.600;2023-05-23T05:53:36;95090.91;;;12.97;100.00
40245;BME280;25963;42.694;23.600;2023-05-23T05:56:04;95070.94;;;12.78;100.00
40245;BME280;25963;42.694;23.600;2023-05-23T05:58:30;95110.31;;;13.15;100.00
40245;BME280;25963;42.694;23.600;2023-05-23T06:01:01;95084.13;;;12.90;100.00
40245;BME280;25963;42.694;23.600;2023-05-23T06:03:26;95119.75;;;13.22;100.00
40245;BME280;25963;42.694;23.600;2023-05-23T06:05:52;95105.47;;;13.23;100.00
40245;BME280;25963;42.694;23.600;2023-05-23T06:08:18;95083.16;;;13.19;100.00
40245;BME280;25963;42.694;23.600;2023-05-23T06:10:44;95105.56;;;13.40;100.00
40245;BME280;25963;42.694;23.600;2023-05-23T06:13:09;95128.59;;;13.68;100.00
40245;BME280;25963;42.694;23.600;2023-05-23T06:15:35;95093.88;;;13.53;100.00
40245;BME280;25963;42.694;23.600;2023-05-23T06:18:01;95103.47;;;13.42;100.00
40245;BME280;25963;42.694;23.600;2023-05-23T06:20:27;95111.06;;;13.51;100.00
40245;BME280;25963;42.694;23.600;2023-05-23T06:22:52;95105.94;;;13.61;100.00
40245;BME280;25963;42.694;23.600;2023-05-23T06:25:18;95096.50;;;13.82;100.00
40245;BME280;25963;42.694;23.600;2023-05-23T06:27:43;95098.03;;;13.78;100.00
40245;BME280;25963;42.694;23.600;2023-05-23T06:30:10;95092.88;;;13.88;100.00
40245;BME280;25963;42.694;23.600;2023-05-23T06:32:36;95132.47;;;13.78;100.00
40245;BME280;25963;42.694;23.600;2023-05-23T06:35:02;95124.31;;;13.96;100.00
40245;BME280;25963;42.694;23.600;2023-05-23T06:37:28;95111.78;;;13.91;100.00
40245;BME280;25963;42.694;23.600;2023-05-23T06:39:53;95117.25;;;14.02;100.00
40245;BME280;25963;42.694;23.600;2023-05-23T06:42:19;95102.16;;;14.02;100.00
40245;BME280;25963;42.694;23.600;2023-05-23T06:44:44;95090.97;;;14.17;100.00
40245;BME280;25963;42.694;23.600;2023-05-23T06:47:10;95091.56;;;14.36;100.00
40245;BME280;25963;42.694;23.600;2023-05-23T06:49:35;95087.75;;;14.32;100.00
40245;BME280;25963;42.694;23.600;2023-05-23T06:52:34;95076.88;;;14.50;100.00
40245;BME280;25963;42.694;23.600;2023-05-23T06:55:14;95098.88;;;14.46;100.00
40245;BME280;25963;42.694;23.600;2023-05-23T06:57:43;95128.22;;;14.73;100.00
40245;BME280;25963;42.694;23.600;2023-05-23T07:00:12;95089.28;;;14.61;100.00
40245;BME280;25963;42.694;23.600;2023-05-23T07:02:38;95089.50;;;14.77;100.00
40245;BME280;25963;42.694;23.600;2023-05-23T07:05:07;95096.63;;;14.93;100.00
40245;BME280;25963;42.694;23.600;2023-05-23T07:07:33;95080.94;;;14.92;100.00
40245;BME280;25963;42.694;23.600;2023-05-23T07:09:58;95108.38;;;15.19;100.00
40245;BME280;25963;42.694;23.600;2023-05-23T07:12:25;95119.75;;;15.59;100.00
40245;BME280;25963;42.694;23.600;2023-05-23T07:14:50;95071.75;;;15.48;100.00
40245;BME280;25963;42.694;23.600;2023-05-23T07:17:16;95061.06;;;15.43;100.00
40245;BME280;25963;42.694;23.600;2023-05-23T07:19:42;95101.81;;;15.71;100.00
40245;BME280;25963;42.694;23.600;2023-05-23T07:22:07;95074.66;;;15.96;100.00
40245;BME280;25963;42.694;23.600;2023-05-23T07:24:33;95079.75;;;16.03;100.00
40245;BME280;25963;42.694;23.600;2023-05-23T07:26:58;95096.09;;;16.49;100.00
40245;BME280;25963;42.694;23.600;2023-05-23T07:29:24;95095.00;;;16.82;100.00
40245;BME280;25963;42.694;23.600;2023-05-23T07:31:49;95075.09;;;16.95;100.00
40245;BME280;25963;42.694;23.600;2023-05-23T07:34:15;95090.59;;;17.03;100.00
40245;BME280;25963;42.694;23.600;2023-05-23T07:36:40;95085.66;;;16.42;100.00
40245;BME280;25963;42.694;23.600;2023-05-23T07:39:07;95082.94;;;16.74;100.00
40245;BME280;25963;42.694;23.600;2023-05-23T07:41:32;95088.25;;;16.74;100.00
40245;BME280;25963;42.694;23.600;2023-05-23T07:43:58;95081.00;;;17.07;100.00
40245;BME280;25963;42.694;23.600;2023-05-23T07:46:23;95080.22;;;17.06;100.00
40245;BME280;25963;42.694;23.600;2023-05-23T07:48:49;95070.97;;;17.29;100.00
40245;BME280;25963;42.694;23.600;2023-05-23T07:51:14;95077.69;;;17.42;100.00
40245;BME280;25963;42.694;23.600;2023-05-23T07:53:45;95093.22;;;17.76;100.00
40245;BME280;25963;42.694;23.600;2023-05-23T07:56:11;95097.47;;;17.67;100.00
40245;BME280;25963;42.694;23.600;2023-05-23T07:58:36;95066.00;;;17.69;100.00
40245;BME280;25963;42.694;23.600;2023-05-23T08:01:02;95082.34;;;17.77;100.00
40245;BME280;25963;42.694;23.600;2023-05-23T08:03:27;95093.59;;;18.20;100.00
40245;BME280;25963;42.694;23.600;2023-05-23T08:05:53;95062.63;;;18.35;100.00
40245;BME280;25963;42.694;23.600;2023-05-23T08:08:18;95065.78;;;18.57;100.00
40245;BME280;25963;42.694;23.600;2023-05-23T08:10:44;95086.88;;;18.54;100.00
40245;BME280;25963;42.694;23.600;2023-05-23T08:13:10;95081.84;;;18.37;100.00
40245;BME280;25963;42.694;23.600;2023-05-23T08:15:35;95089.03;;;18.21;100.00
40245;BME280;25963;42.694;23.600;2023-05-23T08:18:01;95077.56;;;18.31;100.00
40245;BME280;25963;42.694;23.600;2023-05-23T08:20:26;95057.22;;;18.81;100.00
40245;BME280;25963;42.694;23.600;2023-05-23T08:22:57;95080.66;;;19.09;100.00
40245;BME280;25963;42.694;23.600;2023-05-23T08:25:23;95082.97;;;19.42;100.00
40245;BME280;25963;42.694;23.600;2023-05-23T08:27:49;95052.34;;;19.63;100.00
40245;BME280;25963;42.694;23.600;2023-05-23T08:30:15;95064.91;;;19.68;100.00
40245;BME280;25963;42.694;23.600;2023-05-23T08:32:41;95056.75;;;19.88;100.00
40245;BME280;25963;42.694;23.600;2023-05-23T08:35:07;95083.47;;;19.98;100.00
40245;BME280;25963;42.694;23.600;2023-05-23T08:37:32;95061.53;;;19.91;100.00
40245;BME280;25963;42.694;23.600;2023-05-23T08:39:58;95058.03;;;20.30;100.00
40245;BME280;25963;42.694;23.600;2023-05-23T08:42:25;95047.63;;;20.28;100.00
40245;BME280;25963;42.694;23.600;2023-05-23T08:44:50;95045.63;;;20.73;100.00
40245;BME280;25963;42.694;23.600;2023-05-23T08:47:16;95051.34;;;21.15;100.00
40245;BME280;25963;42.694;23.600;2023-05-23T08:49:44;95063.66;;;21.16;100.00
40245;BME280;25963;42.694;23.600;2023-05-23T08:52:11;95042.94;;;21.22;100.00
40245;BME280;25963;42.694;23.600;2023-05-23T08:54:39;95034.09;;;21.45;100.00
40245;BME280;25963;42.694;23.600;2023-05-23T08:57:07;95058.63;;;21.33;100.00
40245;BME280;25963;42.694;23.600;2023-05-23T08:59:34;95032.25;;;21.40;100.00
40245;BME280;25963;42.694;23.600;2023-05-23T09:02:02;95057.00;;;21.56;100.00
40245;BME280;25963;42.694;23.600;2023-05-23T09:04:30;95054.81;;;21.39;100.00
40245;BME280;25963;42.694;23.600;2023-05-23T09:06:57;95035.84;;;21.55;100.00
40245;BME280;25963;42.694;23.600;2023-05-23T09:09:24;95027.50;;;21.75;100.00
40245;BME280;25963;42.694;23.600;2023-05-23T09:11:50;95036.75;;;22.21;100.00
40245;BME280;25963;42.694;23.600;2023-05-23T09:14:16;95030.34;;;22.36;100.00
40245;BME280;25963;42.694;23.600;2023-05-23T09:16:46;95041.66;;;22.32;100.00
40245;BME280;25963;42.694;23.600;2023-05-23T09:19:13;95036.75;;;22.53;100.00
40245;BME280;25963;42.694;23.600;2023-05-23T09:21:45;95011.00;;;22.80;100.00
40245;BME280;25963;42.694;23.600;2023-05-23T09:24:11;95015.41;;;23.17;100.00
40245;BME280;25963;42.694;23.600;2023-05-23T09:26:36;95019.94;;;22.75;100.00
40245;BME280;25963;42.694;23.600;2023-05-23T09:29:08;95014.91;;;23.01;100.00
40245;BME280;25963;42.694;23.600;2023-05-23T09:31:34;95006.06;;;22.54;100.00
40245;BME280;25963;42.694;23.600;2023-05-23T09:33:59;95006.31;;;22.86;100.00
40245;BME280;25963;42.694;23.600;2023-05-23T09:36:29;94998.25;;;22.86;100.00
40245;BME280;25963;42.694;23.600;2023-05-23T09:39:01;95011.31;;;23.20;100.00
40245;BME280;25963;42.694;23.600;2023-05-23T09:41:29;95003.34;;;23.15;100.00
40245;BME280;25963;42.694;23.600;2023-05-23T09:44:04;94992.81;;;23.55;100.00
40245;BME280;25963;42.694;23.600;2023-05-23T09:46:33;95004.31;;;23.83;100.00
40245;BME280;25963;42.694;23.600;2023-05-23T09:48:59;94967.94;;;23.72;100.00
40245;BME280;25963;42.694;23.600;2023-05-23T09:51:24;94974.38;;;24.07;100.00
40245;BME280;25963;42.694;23.600;2023-05-23T09:53:50;94961.41;;;24.40;100.00
40245;BME280;25963;42.694;23.600;2023-05-23T09:56:18;94982.19;;;24.62;100.00
40245;BME280;25963;42.694;23.600;2023-05-23T09:58:48;94996.81;;;24.70;100.00
40245;BME280;25963;42.694;23.600;2023-05-23T10:01:15;94979.44;;;24.53;87.40
40245;BME280;25963;42.694;23.600;2023-05-23T10:09:12;94966.88;;;24.89;80.46
40245;BME280;25963;42.694;23.600;2023-05-23T10:14:26;94964.78;;;25.17;71.64
40245;BME280;25963;42.694;23.600;2023-05-23T10:17:17;94955.81;;;24.99;63.27
40245;BME280;25963;42.694;23.600;2023-05-23T10:19:59;94947.31;;;25.14;61.54
40245;BME280;25963;42.694;23.600;2023-05-23T10:22:26;94958.59;;;25.25;64.83
40245;BME280;25963;42.694;23.600;2023-05-23T10:24:52;94936.91;;;24.90;56.29
40245;BME280;25963;42.694;23.600;2023-05-23T10:27:18;94952.97;;;25.13;60.54
40245;BME280;25963;42.694;23.600;2023-05-23T10:29:44;94929.00;;;25.02;56.92
40245;BME280;25963;42.694;23.600;2023-05-23T10:32:10;94923.59;;;25.02;62.01
40245;BME280;25963;42.694;23.600;2023-05-23T10:35:03;94938.22;;;25.10;58.22
40245;BME280;25963;42.694;23.600;2023-05-23T10:37:39;94954.97;;;24.81;51.88
40245;BME280;25963;42.694;23.600;2023-05-23T10:43:04;94946.13;;;25.06;52.66
40245;BME280;25963;42.694;23.600;2023-05-23T10:45:39;94924.03;;;24.87;51.45
40245;BME280;25963;42.694;23.600;2023-05-23T10:48:19;94932.50;;;25.12;52.31
40245;BME280;25963;42.694;23.600;2023-05-23T10:50:45;94927.31;;;25.24;49.88
40245;BME280;25963;42.694;23.600;2023-05-23T10:53:15;94923.38;;;25.65;49.27
40245;BME280;25963;42.694;23.600;2023-05-23T10:55:40;94921.59;;;25.51;52.13
40245;BME280;25963;42.694;23.600;2023-05-23T10:58:19;94925.41;;;25.42;49.60
40245;BME280;25963;42.694;23.600;2023-05-23T11:03:18;94924.81;;;25.88;63.43
40245;BME280;25963;42.694;23.600;2023-05-23T11:05:52;94916.19;;;25.69;54.26
40245;BME280;25963;42.694;23.600;2023-05-23T11:08:19;94919.72;;;25.43;43.99
40245;BME280;25963;42.694;23.600;2023-05-23T11:11:02;94912.72;;;25.42;38.19
40245;BME280;25963;42.694;23.600;2023-05-23T11:18:51;94929.47;;;25.04;53.78
40245;BME280;25963;42.694;23.600;2023-05-23T11:21:18;94913.94;;;25.10;37.87
40245;BME280;25963;42.694;23.600;2023-05-23T11:23:44;94907.81;;;24.78;36.01
40245;BME280;25963;42.694;23.600;2023-05-23T11:26:40;94907.59;;;25.15;39.53
40245;BME280;25963;42.694;23.600;2023-05-23T11:29:15;94901.69;;;24.95;37.66
40245;BME280;25963;42.694;23.600;2023-05-23T11:31:41;94892.53;;;24.56;38.48
40245;BME280;25963;42.694;23.600;2023-05-23T11:34:06;94871.09;;;24.51;35.62
40245;BME280;25963;42.694;23.600;2023-05-23T11:36:32;94900.34;;;24.67;37.82
40245;BME280;25963;42.694;23.600;2023-05-23T11:39:01;94891.50;;;24.83;36.07
40245;BME280;25963;42.694;23.600;2023-05-23T11:41:28;94893.19;;;24.71;34.92
40245;BME280;25963;42.694;23.600;2023-05-23T11:43:54;94891.72;;;24.47;37.40
40245;BME280;25963;42.694;23.600;2023-05-23T11:46:20;94879.31;;;24.46;34.29
40245;BME280;25963;42.694;23.600;2023-05-23T11:48:46;94876.38;;;24.56;37.05
40245;BME280;25963;42.694;23.600;2023-05-23T11:51:11;94872.75;;;24.70;35.26
40245;BME280;25963;42.694;23.600;2023-05-23T11:53:37;94886.75;;;24.80;37.05
40245;BME280;25963;42.694;23.600;2023-05-23T11:56:03;94882.41;;;24.62;36.21
40245;BME280;25963;42.694;23.600;2023-05-23T11:58:30;94882.75;;;24.78;33.57
40245;BME280;25963;42.694;23.600;2023-05-23T12:01:01;94898.50;;;24.93;37.69
40245;BME280;25963;42.694;23.600;2023-05-23T12:03:27;94876.16;;;25.10;37.68
40245;BME280;25963;42.694;23.600;2023-05-23T12:05:56;94877.94;;;25.15;35.75
40245;BME280;25963;42.694;23.600;2023-05-23T12:08:22;94873.13;;;25.12;36.54
40245;BME280;25963;42.694;23.600;2023-05-23T12:10:52;94863.44;;;25.02;36.28
40245;BME280;25963;42.694;23.600;2023-05-23T12:13:19;94870.63;;;25.33;39.14
40245;BME280;25963;42.694;23.600;2023-05-23T12:15:44;94871.22;;;24.86;34.71
40245;BME280;25963;42.694;23.600;2023-05-23T12:18:11;94865.50;;;25.05;35.24
40245;BME280;25963;42.694;23.600;2023-05-23T12:20:37;94869.63;;;25.02;36.32
40245;BME280;25963;42.694;23.600;2023-05-23T12:23:05;94870.06;;;24.78;33.92
40245;BME280;25963;42.694;23.600;2023-05-23T12:25:39;94860.41;;;24.86;35.98
40245;BME280;25963;42.694;23.600;2023-05-23T12:28:06;94855.59;;;24.66;33.50
40245;BME280;25963;42.694;23.600;2023-05-23T12:30:40;94861.19;;;24.87;33.70
40245;BME280;25963;42.694;23.600;2023-05-23T12:33:07;94850.06;;;24.79;34.14
40245;BME280;25963;42.694;23.600;2023-05-23T12:35:33;94858.81;;;24.85;31.59
40245;BME280;25963;42.694;23.600;2023-05-23T12:37:58;94848.59;;;24.65;33.47
40245;BME280;25963;42.694;23.600;2023-05-23T12:40:24;94846.38;;;24.58;30.10
40245;BME280;25963;42.694;23.600;2023-05-23T12:42:50;94843.88;;;24.70;29.09
40245;BME280;25963;42.694;23.600;2023-05-23T12:45:21;94851.84;;;24.93;29.47
40245;BME280;25963;42.694;23.600;2023-05-23T12:47:47;94847.16;;;24.58;28.12
40245;BME280;25963;42.694;23.600;2023-05-23T12:50:12;94842.09;;;24.57;29.32
40245;BME280;25963;42.694;23.600;2023-05-23T12:52:38;94833.25;;;24.65;32.25
40245;BME280;25963;42.694;23.600;2023-05-23T12:55:05;94820.56;;;24.74;35.10
40245;BME280;25963;42.694;23.600;2023-05-23T12:57:32;94814.19;;;24.70;34.26
40245;BME280;25963;42.694;23.600;2023-05-23T12:59:58;94808.13;;;24.56;36.17
40245;BME280;25963;42.694;23.600;2023-05-23T13:02:24;94815.75;;;24.45;35.38
40245;BME280;25963;42.694;23.600;2023-05-23T13:04:49;94817.19;;;24.51;35.46
40245;BME280;25963;42.694;23.600;2023-05-23T13:07:15;94830.75;;;24.86;34.77
40245;BME280;25963;42.694;23.600;2023-05-23T13:09:40;94812.00;;;24.90;33.92
40245;BME280;25963;42.694;23.600;2023-05-23T13:12:06;94807.41;;;24.99;34.37
40245;BME280;25963;42.694;23.600;2023-05-23T13:14:31;94796.94;;;25.06;35.00
40245;BME280;25963;42.694;23.600;2023-05-23T13:16:59;94808.97;;;24.91;35.25
40245;BME280;25963;42.694;23.600;2023-05-23T13:19:25;94801.22;;;24.98;36.52
40245;BME280;25963;42.694;23.600;2023-05-23T13:21:50;94789.66;;;24.98;34.13
40245;BME280;25963;42.694;23.600;2023-05-23T13:24:16;94787.41;;;24.91;37.11
40245;BME280;25963;42.694;23.600;2023-05-23T13:26:42;94800.59;;;24.84;35.39
40245;BME280;25963;42.694;23.600;2023-05-23T13:29:07;94799.16;;;24.95;36.89
40245;BME280;25963;42.694;23.600;2023-05-23T13:31:32;94795.03;;;24.89;33.25
40245;BME280;25963;42.694;23.600;2023-05-23T13:33:58;94791.22;;;24.90;35.40
40245;BME280;25963;42.694;23.600;2023-05-23T13:36:23;94798.81;;;24.62;38.35
40245;BME280;25963;42.694;23.600;2023-05-23T13:38:50;94802.31;;;24.63;34.61
40245;BME280;25963;42.694;23.600;2023-05-23T13:41:15;94799.81;;;24.92;35.96
40245;BME280;25963;42.694;23.600;2023-05-23T13:43:41;94795.31;;;24.62;34.17
40245;BME280;25963;42.694;23.600;2023-05-23T13:46:06;94793.34;;;24.36;32.44
40245;BME280;25963;42.694;23.600;2023-05-23T13:48:32;94813.06;;;24.45;31.94
40245;BME280;25963;42.694;23.600;2023-05-23T13:50:57;94804.03;;;24.67;31.72
40245;BME280;25963;42.694;23.600;2023-05-23T13:53:23;94798.19;;;24.91;34.57
40245;BME280;25963;42.694;23.600;2023-05-23T13:55:49;94801.03;;;24.95;30.79
40245;BME280;25963;42.694;23.600;2023-05-23T13:58:15;94787.75;;;25.16;35.78
40245;BME280;25963;42.694;23.600;2023-05-23T14:00:41;94788.56;;;25.16;32.86
40245;BME280;25963;42.694;23.600;2023-05-23T14:03:10;94800.41;;;25.06;32.60
40245;BME280;25963;42.694;23.600;2023-05-23T14:05:36;94795.66;;;25.03;32.56
40245;BME280;25963;42.694;23.600;2023-05-23T14:08:01;94786.63;;;24.91;34.03
40245;BME280;25963;42.694;23.600;2023-05-23T14:10:30;94781.38;;;24.77;29.28
40245;BME280;25963;42.694;23.600;2023-05-23T14:12:57;94804.22;;;24.97;29.86
40245;BME280;25963;42.694;23.600;2023-05-23T14:15:23;94792.34;;;24.98;30.46
40245;BME280;25963;42.694;23.600;2023-05-23T14:17:48;94797.41;;;24.91;31.46
40245;BME280;25963;42.694;23.600;2023-05-23T14:20:19;94800.75;;;24.96;28.78
40245;BME280;25963;42.694;23.600;2023-05-23T14:22:45;94798.69;;;25.11;32.57
40245;BME280;25963;42.694;23.600;2023-05-23T14:25:14;94808.53;;;25.33;33.55
40245;BME280;25963;42.694;23.600;2023-05-23T14:27:47;94763.75;;;24.71;30.33
40245;BME280;25963;42.694;23.600;2023-05-23T14:30:19;94757.72;;;24.48;28.39
40245;BME280;25963;42.694;23.600;2023-05-23T14:32:47;94769.47;;;24.78;30.53
40245;BME280;25963;42.694;23.600;2023-05-23T14:35:13;94778.81;;;24.63;28.76
40245;BME280;25963;42.694;23.600;2023-05-23T14:37:41;94783.28;;;24.85;28.02
40245;BME280;25963;42.694;23.600;2023-05-23T14:40:07;94812.09;;;24.50;28.81
40245;BME280;25963;42.694;23.600;2023-05-23T14:42:34;94792.31;;;24.63;26.62
40245;BME280;25963;42.694;23.600;2023-05-23T14:45:00;94793.59;;;24.74;30.63
40245;BME280;25963;42.694;23.600;2023-05-23T14:47:43;94772.13;;;24.43;28.70
40245;BME280;25963;42.694;23.600;2023-05-23T14:50:09;94786.16;;;24.80;28.35
40245;BME280;25963;42.694;23.600;2023-05-23T14:52:44;94774.09;;;24.77;31.95
40245;BME280;25963;42.694;23.600;2023-05-23T14:55:12;94781.50;;;24.46;29.32
40245;BME280;25963;42.694;23.600;2023-05-23T14:57:44;94799.44;;;24.59;30.38
40245;BME280;25963;42.694;23.600;2023-05-23T15:00:10;94784.88;;;24.69;30.07
40245;BME280;25963;42.694;23.600;2023-05-23T15:02:36;94780.44;;;24.81;27.29
40245;BME280;25963;42.694;23.600;2023-05-23T15:05:02;94783.44;;;24.71;26.13
40245;BME280;25963;42.694;23.600;2023-05-23T15:07:29;94785.16;;;24.58;28.05
40245;BME280;25963;42.694;23.600;2023-05-23T15:09:54;94776.91;;;24.64;29.13
40245;BME280;25963;42.694;23.600;2023-05-23T15:12:20;94784.88;;;24.69;29.88